createdAt,value
2024-05-09T00:00:56.505Z,143.00
2024-05-09T00:01:57.522Z,143.50
2024-05-09T00:02:58.946Z,142.67
2024-05-09T00:03:59.876Z,142.00
2024-05-09T00:05:00.949Z,142.00
2024-05-09T00:06:02.155Z,142.50
2024-05-09T00:07:03.214Z,142.00
2024-05-09T00:08:04.972Z,141.00
2024-05-09T00:09:05.872Z,140.33
2024-05-09T00:10:11.686Z,139.00
2024-05-09T00:11:19.503Z,140.67
2024-05-09T00:12:20.550Z,149.33
2024-05-09T00:13:21.526Z,159.67
2024-05-09T00:14:22.489Z,158.00
2024-05-09T00:15:23.363Z,155.17
2024-05-09T00:16:24.274Z,154.67
2024-05-09T00:17:25.281Z,154.33
2024-05-09T00:18:26.378Z,152.17
2024-05-09T00:19:27.557Z,150.00
2024-05-09T00:20:36.452Z,146.17
2024-05-09T00:21:42.147Z,145.00
2024-05-09T00:22:43.015Z,147.17
2024-05-09T00:23:43.949Z,153.50
2024-05-09T00:24:44.799Z,157.50
2024-05-09T00:25:48.351Z,156.33
2024-05-09T00:26:49.231Z,155.17
2024-05-09T00:27:50.068Z,155.00
2024-05-09T00:28:51.069Z,155.00
2024-05-09T00:29:52.016Z,155.00
2024-05-09T00:30:52.849Z,154.83
2024-05-09T00:31:53.761Z,154.00
2024-05-09T00:32:54.754Z,153.17
2024-05-09T00:33:55.815Z,153.00
2024-05-09T00:34:56.876Z,153.00
2024-05-09T00:35:57.777Z,153.00
2024-05-09T00:36:58.611Z,153.00
2024-05-09T00:37:59.772Z,153.00
2024-05-09T00:39:00.809Z,153.00
2024-05-09T00:40:01.675Z,153.00
2024-05-09T00:41:02.584Z,153.00
2024-05-09T00:42:03.664Z,152.00
2024-05-09T00:43:07.121Z,151.00
2024-05-09T00:44:08.128Z,149.83
2024-05-09T00:45:09.030Z,148.00
2024-05-09T00:46:09.884Z,146.67
2024-05-09T00:47:10.846Z,145.17
2024-05-09T00:48:14.048Z,140.00
2024-05-09T00:49:17.288Z,132.17
2024-05-09T00:50:23.032Z,130.67
2024-05-09T00:51:30.687Z,133.33
2024-05-09T00:52:31.578Z,134.67
2024-05-09T00:53:32.659Z,138.83
2024-05-09T00:54:33.564Z,145.50
2024-05-09T00:55:34.560Z,150.17
2024-05-09T00:56:35.485Z,157.67
2024-05-09T00:57:36.373Z,164.33
2024-05-09T00:58:37.229Z,165.00
2024-05-09T00:59:38.195Z,165.50
2024-05-09T01:00:41.023Z,167.00
2024-05-09T01:01:42.698Z,166.33
2024-05-09T01:02:43.814Z,163.83
2024-05-09T01:03:46.487Z,158.67
2024-05-09T01:04:49.231Z,155.50
2024-05-09T01:05:50.991Z,152.00
2024-05-09T01:06:52.076Z,144.67
2024-05-09T01:07:52.962Z,141.17
2024-05-09T01:08:53.828Z,141.17
2024-05-09T01:09:54.664Z,142.00
2024-05-09T01:10:55.634Z,143.00
2024-05-09T01:11:56.638Z,143.33
2024-05-09T01:12:57.502Z,144.00
2024-05-09T01:13:58.375Z,144.00
2024-05-09T01:14:59.226Z,144.00
2024-05-09T01:16:00.100Z,145.00
2024-05-09T01:17:00.988Z,147.17
2024-05-09T01:18:05.762Z,152.33
2024-05-09T01:19:09.434Z,154.00
2024-05-09T01:20:12.998Z,154.50
2024-05-09T01:21:20.736Z,154.33
2024-05-09T01:22:21.616Z,153.33
2024-05-09T01:23:22.553Z,148.17
2024-05-09T01:24:23.439Z,142.83
2024-05-09T01:25:24.268Z,141.00
2024-05-09T01:26:25.205Z,142.33
2024-05-09T01:27:26.105Z,144.67
2024-05-09T01:28:26.934Z,147.67
2024-05-09T01:29:27.865Z,148.50
2024-05-09T01:30:34.434Z,149.50
2024-05-09T01:31:37.646Z,150.17
2024-05-09T01:32:38.639Z,151.33
2024-05-09T01:33:39.910Z,152.00
2024-05-09T01:34:40.899Z,153.00
2024-05-09T01:35:42.773Z,152.83
2024-05-09T01:36:44.090Z,152.00
2024-05-09T01:37:45.035Z,152.00
2024-05-09T01:38:45.920Z,154.00
2024-05-09T01:39:46.776Z,155.67
2024-05-09T01:40:47.727Z,156.67
2024-05-09T01:41:48.566Z,158.33
2024-05-09T01:42:49.397Z,160.83
2024-05-09T01:43:50.329Z,161.00
2024-05-09T01:44:51.163Z,160.33
2024-05-09T01:45:52.001Z,159.17
2024-05-09T01:46:52.881Z,158.00
2024-05-09T01:47:53.904Z,157.83
2024-05-09T01:48:55.035Z,157.00
2024-05-09T01:49:56.044Z,156.67
2024-05-09T01:50:56.929Z,156.00
2024-05-09T01:51:57.835Z,154.83
2024-05-09T01:52:58.711Z,151.83
2024-05-09T01:53:59.576Z,144.00
2024-05-09T01:55:03.518Z,138.17
2024-05-09T01:56:07.217Z,140.17
2024-05-09T01:57:08.089Z,142.33
2024-05-09T01:58:09.103Z,150.00
2024-05-09T01:59:10.071Z,154.00
2024-05-09T02:01:13.738Z,149.50
2024-05-09T02:02:14.917Z,148.33
2024-05-09T02:03:17.668Z,144.67
2024-05-09T02:04:19.300Z,141.33
2024-05-09T02:05:20.431Z,141.17
2024-05-09T02:06:21.290Z,141.33
2024-05-09T02:07:22.174Z,140.50
2024-05-09T02:08:23.091Z,136.50
2024-05-09T02:09:24.688Z,133.00
2024-05-09T02:10:32.058Z,132.67
2024-05-09T02:11:41.421Z,131.50
2024-05-09T02:12:42.341Z,133.33
2024-05-09T02:13:43.251Z,134.50
2024-05-09T02:14:44.140Z,134.17
2024-05-09T02:15:45.146Z,134.50
2024-05-09T02:16:46.762Z,135.00
2024-05-09T02:17:47.888Z,135.00
2024-05-09T02:18:49.041Z,135.33
2024-05-09T02:19:50.055Z,136.00
2024-05-09T02:20:50.938Z,136.00
2024-05-09T02:21:51.831Z,135.00
2024-05-09T02:22:52.892Z,135.00
2024-05-09T02:23:53.760Z,135.33
2024-05-09T02:24:54.588Z,135.33
2024-05-09T02:25:55.487Z,137.67
2024-05-09T02:26:56.373Z,140.67
2024-05-09T02:27:57.258Z,141.67
2024-05-09T02:28:58.563Z,142.00
2024-05-09T02:29:59.406Z,140.50
2024-05-09T02:31:00.294Z,139.17
2024-05-09T02:32:01.340Z,134.50
2024-05-09T02:33:02.395Z,129.33
2024-05-09T02:34:03.594Z,127.00
2024-05-09T02:35:04.892Z,124.33
2024-05-09T02:36:06.061Z,124.50
2024-05-09T02:37:06.954Z,125.00
2024-05-09T02:38:10.980Z,125.50
2024-05-09T02:39:11.999Z,126.17
2024-05-09T02:40:14.986Z,127.17
2024-05-09T02:41:19.220Z,129.17
2024-05-09T02:42:20.070Z,130.00
2024-05-09T02:43:20.907Z,130.00
2024-05-09T02:44:21.774Z,130.83
2024-05-09T02:45:23.785Z,130.67
2024-05-09T02:46:24.624Z,130.17
2024-05-09T02:47:25.613Z,131.33
2024-05-09T02:48:26.769Z,132.00
2024-05-09T02:49:27.835Z,131.33
2024-05-09T02:50:34.335Z,131.00
2024-05-09T02:51:39.513Z,129.83
2024-05-09T02:52:40.342Z,128.67
2024-05-09T02:53:41.247Z,127.50
2024-05-09T02:54:42.131Z,126.33
2024-05-09T02:55:43.430Z,126.17
2024-05-09T02:56:44.377Z,125.17
2024-05-09T02:57:45.220Z,124.00
2024-05-09T02:58:46.081Z,124.00
2024-05-09T02:59:46.936Z,124.50
2024-05-09T03:00:47.811Z,124.67
2024-05-09T03:01:48.790Z,123.67
2024-05-09T03:02:49.858Z,121.50
2024-05-09T03:03:51.274Z,120.33
2024-05-09T03:04:52.532Z,120.00
2024-05-09T03:05:53.430Z,119.83
2024-05-09T03:06:54.268Z,119.00
2024-05-09T03:07:55.159Z,117.83
2024-05-09T03:08:56.012Z,115.67
2024-05-09T03:09:56.848Z,113.83
2024-05-09T03:10:57.717Z,112.83
2024-05-09T03:11:58.783Z,111.33
2024-05-09T03:12:59.697Z,109.17
2024-05-09T03:14:00.643Z,109.17
2024-05-09T03:15:01.517Z,110.00
2024-05-09T03:16:02.392Z,110.83
2024-05-09T03:17:03.314Z,112.17
2024-05-09T03:18:04.952Z,114.50
2024-05-09T03:19:06.081Z,120.33
2024-05-09T03:20:16.996Z,126.17
2024-05-09T03:21:21.480Z,129.00
2024-05-09T03:22:22.327Z,139.67
2024-05-09T03:23:23.191Z,148.83
2024-05-09T03:24:24.056Z,149.50
2024-05-09T03:25:24.955Z,148.00
2024-05-09T03:26:25.923Z,147.50
2024-05-09T03:27:26.866Z,145.33
2024-05-09T03:28:27.710Z,144.00
2024-05-09T03:29:28.659Z,143.17
2024-05-09T03:30:38.107Z,142.50
2024-05-09T03:31:42.606Z,141.50
2024-05-09T03:32:43.640Z,141.00
2024-05-09T03:33:44.800Z,142.00
2024-05-09T03:34:45.850Z,142.33
2024-05-09T03:35:47.374Z,145.17
2024-05-09T03:36:48.387Z,149.50
2024-05-09T03:37:49.231Z,149.17
2024-05-09T03:38:50.090Z,147.67
2024-05-09T03:39:51.220Z,146.17
2024-05-09T03:40:52.108Z,145.00
2024-05-09T03:41:52.971Z,145.00
2024-05-09T03:42:53.796Z,145.00
2024-05-09T03:43:54.663Z,145.33
2024-05-09T03:44:56.829Z,148.17
2024-05-09T03:45:57.692Z,151.50
2024-05-09T03:46:58.574Z,155.83
2024-05-09T03:47:59.670Z,161.17
2024-05-09T03:49:00.753Z,161.00
2024-05-09T03:50:01.857Z,158.50
2024-05-09T03:51:03.181Z,155.17
2024-05-09T03:52:04.457Z,145.17
2024-05-09T03:53:09.498Z,137.33
2024-05-09T03:54:10.373Z,132.17
2024-05-09T03:55:11.221Z,132.83
2024-05-09T03:56:12.112Z,134.50
2024-05-09T03:57:13.052Z,135.33
2024-05-09T03:58:13.896Z,136.17
2024-05-09T03:59:14.752Z,138.83
2024-05-09T04:00:22.101Z,146.83
2024-05-09T04:01:28.858Z,152.67
2024-05-09T04:02:29.852Z,155.17
2024-05-09T04:03:30.887Z,156.00
2024-05-09T04:04:32.014Z,155.17
2024-05-09T04:05:33.191Z,154.00
2024-05-09T04:06:34.143Z,153.83
2024-05-09T04:07:36.486Z,153.17
2024-05-09T04:08:37.521Z,154.33
2024-05-09T04:09:38.478Z,155.83
2024-05-09T04:10:39.851Z,158.50
2024-05-09T04:11:40.839Z,160.33
2024-05-09T04:12:45.007Z,160.00
2024-05-09T04:13:45.897Z,159.50
2024-05-09T04:14:46.777Z,159.00
2024-05-09T04:15:47.624Z,158.17
2024-05-09T04:16:48.491Z,158.00
2024-05-09T04:17:50.362Z,158.33
2024-05-09T04:18:51.418Z,160.67
2024-05-09T04:19:52.305Z,161.83
2024-05-09T04:20:53.292Z,161.00
2024-05-09T04:21:54.132Z,161.00
2024-05-09T04:22:55.007Z,161.00
2024-05-09T04:23:55.855Z,162.00
2024-05-09T04:24:56.727Z,160.33
2024-05-09T04:25:57.602Z,156.83
2024-05-09T04:26:58.466Z,156.00
2024-05-09T04:27:59.290Z,156.83
2024-05-09T04:29:00.163Z,157.00
2024-05-09T04:30:01.022Z,157.83
2024-05-09T04:31:01.869Z,158.83
2024-05-09T04:32:03.956Z,160.00
2024-05-09T04:33:05.237Z,161.67
2024-05-09T04:34:06.536Z,162.00
2024-05-09T04:35:07.564Z,162.00
2024-05-09T04:36:08.497Z,162.00
2024-05-09T04:37:09.351Z,159.83
2024-05-09T04:38:13.843Z,158.67
2024-05-09T04:39:15.310Z,159.83
2024-05-09T04:40:24.296Z,160.50
2024-05-09T04:41:32.297Z,161.00
2024-05-09T04:42:33.180Z,161.67
2024-05-09T04:43:34.225Z,162.17
2024-05-09T04:44:35.264Z,163.33
2024-05-09T04:45:36.128Z,166.33
2024-05-09T04:46:38.672Z,173.50
2024-05-09T04:47:39.642Z,176.50
2024-05-09T04:48:40.707Z,175.33
2024-05-09T04:49:41.776Z,174.83
2024-05-09T04:50:42.803Z,174.00
2024-05-09T04:51:43.774Z,173.17
2024-05-09T04:52:44.669Z,171.83
2024-05-09T04:53:45.600Z,170.00
2024-05-09T04:54:46.455Z,170.67
2024-05-09T04:55:47.446Z,172.00
2024-05-09T04:56:48.391Z,173.50
2024-05-09T04:57:54.638Z,174.00
2024-05-09T04:58:55.508Z,175.00
2024-05-09T04:59:56.900Z,176.33
2024-05-09T05:00:57.738Z,176.17
2024-05-09T05:01:58.710Z,176.50
2024-05-09T05:02:59.927Z,176.33
2024-05-09T05:04:01.052Z,175.50
2024-05-09T05:05:02.519Z,173.83
2024-05-09T05:06:03.597Z,154.00
2024-05-09T05:07:04.706Z,140.83
2024-05-09T05:08:10.457Z,144.67
2024-05-09T05:09:11.330Z,149.83
2024-05-09T05:10:17.900Z,152.50
2024-05-09T05:11:26.048Z,154.00
2024-05-09T05:12:45.666Z,160.50
2024-05-09T05:13:46.507Z,171.17
2024-05-09T05:14:47.343Z,170.17
2024-05-09T05:15:49.230Z,164.17
2024-05-09T05:16:50.175Z,152.50
2024-05-09T05:17:51.262Z,152.00
2024-05-09T05:18:52.382Z,153.50
2024-05-09T05:19:53.505Z,153.50
2024-05-09T05:20:54.519Z,147.83
2024-05-09T05:21:55.387Z,144.17
2024-05-09T05:22:56.248Z,144.50
2024-05-09T05:23:57.096Z,143.17
2024-05-09T05:24:57.966Z,134.83
2024-05-09T05:25:58.846Z,132.00
2024-05-09T05:26:59.690Z,136.67
2024-05-09T05:28:03.555Z,138.33
2024-05-09T05:29:04.510Z,139.50
2024-05-09T05:30:07.535Z,141.17
2024-05-09T05:31:10.378Z,142.00
2024-05-09T05:32:11.483Z,139.83
2024-05-09T05:33:13.172Z,139.33
2024-05-09T05:34:14.304Z,141.17
2024-05-09T05:35:15.167Z,143.83
2024-05-09T05:36:15.998Z,145.67
2024-05-09T05:37:16.824Z,146.33
2024-05-09T05:38:17.974Z,146.00
2024-05-09T05:39:18.936Z,146.00
2024-05-09T05:40:28.170Z,145.50
2024-05-09T05:41:36.329Z,143.17
2024-05-09T05:42:37.180Z,137.33
2024-05-09T05:43:38.052Z,136.00
2024-05-09T05:44:38.906Z,137.17
2024-05-09T05:45:39.790Z,138.33
2024-05-09T05:46:40.664Z,137.83
2024-05-09T05:47:42.146Z,136.33
2024-05-09T05:48:43.303Z,135.00
2024-05-09T05:49:44.304Z,135.00
2024-05-09T05:50:45.291Z,135.83
2024-05-09T05:51:46.201Z,136.50
2024-05-09T05:52:47.122Z,137.50
2024-05-09T05:53:48.084Z,138.83
2024-05-09T05:54:50.593Z,136.50
2024-05-09T05:55:51.536Z,118.67
2024-05-09T05:56:52.429Z,109.83
2024-05-09T05:57:53.288Z,106.33
2024-05-09T05:58:54.200Z,103.50
2024-05-09T05:59:55.039Z,98.50
2024-05-09T06:00:56.349Z,101.67
2024-05-09T06:01:57.305Z,105.67
2024-05-09T06:02:58.251Z,108.00
2024-05-09T06:04:00.766Z,109.67
2024-05-09T06:05:02.064Z,110.83
2024-05-09T06:06:03.067Z,113.00
2024-05-09T06:07:04.233Z,119.83
2024-05-09T06:08:05.528Z,122.17
2024-05-09T06:09:06.443Z,111.17
2024-05-09T06:10:14.232Z,96.83
2024-05-09T06:11:21.992Z,95.50
2024-05-09T06:12:23.152Z,99.50
2024-05-09T06:13:24.092Z,101.33
2024-05-09T06:14:24.989Z,103.83
2024-05-09T06:15:26.231Z,106.33
2024-05-09T06:16:27.081Z,109.00
2024-05-09T06:17:28.084Z,110.50
2024-05-09T06:18:29.303Z,119.00
2024-05-09T06:19:30.474Z,129.50
2024-05-09T06:20:35.972Z,129.33
2024-05-09T06:21:38.844Z,130.00
2024-05-09T06:22:39.679Z,130.67
2024-05-09T06:23:46.699Z,127.67
2024-05-09T06:24:47.621Z,119.67
2024-05-09T06:25:48.545Z,117.00
2024-05-09T06:26:49.445Z,120.00
2024-05-09T06:27:50.309Z,124.17
2024-05-09T06:28:51.223Z,126.50
2024-05-09T06:29:52.094Z,130.67
2024-05-09T06:30:52.974Z,140.67
2024-05-09T06:31:55.422Z,149.17
2024-05-09T06:32:57.569Z,147.33
2024-05-09T06:33:58.686Z,142.17
2024-05-09T06:34:59.599Z,139.17
2024-05-09T06:36:00.457Z,128.33
2024-05-09T06:37:01.288Z,120.50
2024-05-09T06:38:02.497Z,120.67
2024-05-09T06:39:03.606Z,122.50
2024-05-09T06:40:07.186Z,123.67
2024-05-09T06:41:08.265Z,124.67
2024-05-09T06:42:09.104Z,125.33
2024-05-09T06:43:13.673Z,125.00
2024-05-09T06:44:14.712Z,115.33
2024-05-09T06:45:15.554Z,114.17
2024-05-09T06:46:16.378Z,111.00
2024-05-09T06:47:17.292Z,89.17
2024-05-09T06:48:18.801Z,82.00
2024-05-09T06:49:20.277Z,74.33
2024-05-09T06:50:28.187Z,74.33
2024-05-09T06:51:35.420Z,81.50
2024-05-09T06:52:36.276Z,80.33
2024-05-09T06:53:38.401Z,74.67
2024-05-09T06:54:39.243Z,76.67
2024-05-09T06:55:40.126Z,80.33
2024-05-09T06:56:41.028Z,80.33
2024-05-09T06:57:43.155Z,81.17
2024-05-09T06:58:44.121Z,82.50
2024-05-09T06:59:45.025Z,83.50
2024-05-09T07:00:45.926Z,84.83
2024-05-09T07:01:46.788Z,87.83
2024-05-09T07:02:47.980Z,99.50
2024-05-09T07:03:49.005Z,114.33
2024-05-09T07:04:49.945Z,113.50
2024-05-09T07:05:50.896Z,98.50
2024-05-09T07:06:51.758Z,80.83
2024-05-09T07:07:52.656Z,75.83
2024-05-09T07:08:53.622Z,79.83
2024-05-09T07:09:54.468Z,82.17
2024-05-09T07:10:55.583Z,82.67
2024-05-09T07:11:56.723Z,81.50
2024-05-09T07:12:57.620Z,83.33
2024-05-09T07:13:58.564Z,84.83
2024-05-09T07:14:59.450Z,90.00
2024-05-09T07:16:00.292Z,109.83
2024-05-09T07:17:01.313Z,112.50
2024-05-09T07:18:09.516Z,107.33
2024-05-09T07:19:10.689Z,100.83
2024-05-09T07:20:19.479Z,88.50
2024-05-09T07:21:24.284Z,78.83
2024-05-09T07:22:27.463Z,79.50
2024-05-09T07:23:28.415Z,82.00
2024-05-09T07:24:29.277Z,88.50
2024-05-09T07:25:30.462Z,97.33
2024-05-09T07:26:31.597Z,94.00
2024-05-09T07:27:33.252Z,87.83
2024-05-09T07:28:34.088Z,89.00
2024-05-09T07:29:38.367Z,90.00
2024-05-09T07:30:39.806Z,90.00
2024-05-09T07:31:40.660Z,93.83
2024-05-09T07:32:43.831Z,99.00
2024-05-09T07:33:44.939Z,99.00
2024-05-09T07:34:45.894Z,101.33
2024-05-09T07:35:46.793Z,101.00
2024-05-09T07:36:48.523Z,99.67
2024-05-09T07:37:49.403Z,83.00
2024-05-09T07:38:50.299Z,80.83
2024-05-09T07:39:51.213Z,82.33
2024-05-09T07:40:52.117Z,83.33
2024-05-09T07:41:54.183Z,84.67
2024-05-09T07:42:55.026Z,88.00
2024-05-09T07:43:55.888Z,93.00
2024-05-09T07:45:00.986Z,89.67
2024-05-09T07:47:14.031Z,84.33
2024-05-09T07:48:57.510Z,85.17
2024-05-09T07:51:32.967Z,97.00
2024-05-09T07:53:30.109Z,67.83
2024-05-09T07:53:46.160Z,56.83
2024-05-09T07:54:50.611Z,52.83
2024-05-09T07:55:51.687Z,45.33
2024-05-09T07:56:52.958Z,43.00
2024-05-09T07:57:54.081Z,45.50
2024-05-09T07:58:54.958Z,47.67
2024-05-09T07:59:55.811Z,37.17
2024-05-09T08:00:56.799Z,24.00
2024-05-09T08:01:57.834Z,25.50
2024-05-09T08:02:58.768Z,34.83
2024-05-09T08:03:59.740Z,37.00
2024-05-09T08:05:00.846Z,38.50
2024-05-09T08:06:01.758Z,40.00
2024-05-09T08:07:02.700Z,34.33
2024-05-09T08:08:03.804Z,23.33
2024-05-09T08:09:08.224Z,26.50
2024-05-09T08:10:21.958Z,30.83
2024-05-09T08:11:25.663Z,28.50
2024-05-09T08:12:26.556Z,25.17
2024-05-09T08:13:27.428Z,26.17
2024-05-09T08:14:28.275Z,28.17
2024-05-09T08:15:29.393Z,38.50
2024-05-09T08:16:30.352Z,47.67
2024-05-09T08:17:31.296Z,59.83
2024-05-09T08:18:32.508Z,77.00
2024-05-09T08:19:35.324Z,79.17
2024-05-09T08:20:37.028Z,70.33
2024-05-09T08:21:37.883Z,71.00
2024-05-09T08:22:38.765Z,64.67
2024-05-09T08:23:39.631Z,53.33
2024-05-09T08:24:41.480Z,48.83
2024-05-09T08:25:42.538Z,44.17
2024-05-09T08:26:43.381Z,39.83
2024-05-09T08:27:45.000Z,45.67
2024-05-09T08:28:46.066Z,50.33
2024-05-09T08:29:46.937Z,59.50
2024-05-09T08:30:47.979Z,70.83
2024-05-09T08:31:48.951Z,74.83
2024-05-09T08:32:49.872Z,73.00
2024-05-09T08:33:54.153Z,77.83
2024-05-09T08:34:55.142Z,79.50
2024-05-09T08:35:55.990Z,75.17
2024-05-09T08:36:59.528Z,80.67
2024-05-09T08:38:03.224Z,98.67
2024-05-09T08:39:04.215Z,87.00
2024-05-09T08:40:08.482Z,69.67
2024-05-09T08:41:12.514Z,61.00
2024-05-09T08:42:14.157Z,59.33
2024-05-09T08:43:15.159Z,50.50
2024-05-09T08:44:19.822Z,49.67
2024-05-09T08:45:20.938Z,49.83
2024-05-09T08:46:21.899Z,48.17
2024-05-09T08:47:27.694Z,45.83
2024-05-09T08:48:28.763Z,47.67
2024-05-09T08:49:29.886Z,48.67
2024-05-09T08:50:37.884Z,49.50
2024-05-09T08:51:40.759Z,51.00
2024-05-09T08:52:41.631Z,53.83
2024-05-09T08:53:42.461Z,52.33
2024-05-09T08:54:43.936Z,36.17
2024-05-09T08:55:45.098Z,25.83
2024-05-09T08:56:45.970Z,24.00
2024-05-09T08:57:46.861Z,27.50
2024-05-09T08:58:50.866Z,28.83
2024-05-09T08:59:51.785Z,30.00
2024-05-09T09:00:52.821Z,31.83
2024-05-09T09:01:53.892Z,33.33
2024-05-09T09:02:54.871Z,34.00
2024-05-09T09:04:02.899Z,32.83
2024-05-09T09:05:10.155Z,32.83
2024-05-09T09:06:13.368Z,38.17
2024-05-09T09:07:14.252Z,59.00
2024-05-09T09:08:15.177Z,65.67
2024-05-09T09:09:16.013Z,62.17
2024-05-09T09:10:29.145Z,58.33
2024-05-09T09:11:32.667Z,57.67
2024-05-09T09:12:34.026Z,57.00
2024-05-09T09:13:34.961Z,56.50
2024-05-09T09:14:35.811Z,64.00
2024-05-09T09:15:48.946Z,64.50
2024-05-09T09:16:50.767Z,64.67
2024-05-09T09:17:58.167Z,76.00
2024-05-09T09:18:59.232Z,73.83
2024-05-09T09:20:00.613Z,70.00
2024-05-09T09:21:02.000Z,59.00
2024-05-09T09:22:02.930Z,48.00
2024-05-09T09:23:04.334Z,44.00
2024-05-09T09:24:09.760Z,43.33
2024-05-09T09:25:10.903Z,46.33
2024-05-09T09:26:15.645Z,63.67
2024-05-09T09:27:16.513Z,63.50
2024-05-09T09:28:17.533Z,63.50
2024-05-09T09:29:19.592Z,69.00
2024-05-09T09:30:31.835Z,81.67
2024-05-09T09:31:38.204Z,93.33
2024-05-09T09:32:39.104Z,104.67
2024-05-09T09:33:45.702Z,108.83
2024-05-09T09:34:46.906Z,91.17
2024-05-09T09:35:47.790Z,72.50
2024-05-09T09:36:48.650Z,59.17
2024-05-09T09:37:49.901Z,54.67
2024-05-09T09:38:50.939Z,57.83
2024-05-09T09:39:51.915Z,62.50
2024-05-09T09:40:52.836Z,55.83
2024-05-09T09:41:55.034Z,43.00
2024-05-09T09:42:56.639Z,43.83
2024-05-09T09:43:57.519Z,39.00
2024-05-09T09:45:04.665Z,41.83
2024-05-09T09:46:08.615Z,37.17
2024-05-09T09:47:11.494Z,32.67
2024-05-09T09:48:13.668Z,30.83
2024-05-09T09:49:15.928Z,26.00
2024-05-09T09:50:23.850Z,26.00
2024-05-09T09:51:28.935Z,16.33
2024-05-09T09:52:29.839Z,13.33
2024-05-09T09:53:33.870Z,15.00
2024-05-09T09:54:34.718Z,16.50
2024-05-09T09:55:36.319Z,20.00
2024-05-09T09:56:37.975Z,23.33
2024-05-09T09:57:39.159Z,24.67
2024-05-09T09:58:40.050Z,23.67
2024-05-09T09:59:42.284Z,24.17
2024-05-09T10:00:43.641Z,25.33
2024-05-09T10:01:45.096Z,26.00
2024-05-09T10:02:46.041Z,26.67
2024-05-09T10:03:47.090Z,27.83
2024-05-09T10:04:48.219Z,25.83
2024-05-09T10:05:49.204Z,23.33
2024-05-09T10:06:52.213Z,25.00
2024-05-09T10:07:53.097Z,43.67
2024-05-09T10:08:53.938Z,55.17
2024-05-09T10:09:55.402Z,62.17
2024-05-09T10:10:56.389Z,64.83
2024-05-09T10:13:07.772Z,60.33
2024-05-09T10:14:09.019Z,58.33
2024-05-09T10:15:10.051Z,62.00
2024-05-09T10:16:11.280Z,56.83
2024-05-09T10:17:12.332Z,41.67
2024-05-09T10:18:13.982Z,27.50
2024-05-09T10:19:27.602Z,24.00
2024-05-09T10:20:40.703Z,21.33
2024-05-09T10:21:47.558Z,21.67
2024-05-09T10:22:49.407Z,24.83
2024-05-09T10:23:57.652Z,22.83
2024-05-09T10:25:05.871Z,16.17
2024-05-09T10:26:06.734Z,14.83
2024-05-09T10:27:07.620Z,12.67
2024-05-09T10:28:11.062Z,12.83
2024-05-09T10:29:15.955Z,15.33
2024-05-09T10:30:26.142Z,16.83
2024-05-09T10:31:34.298Z,15.83
2024-05-09T10:32:38.462Z,13.33
2024-05-09T10:33:40.622Z,13.67
2024-05-09T10:34:42.956Z,14.83
2024-05-09T10:35:50.518Z,15.83
2024-05-09T10:36:52.153Z,14.50
2024-05-09T10:37:55.467Z,13.17
2024-05-09T10:38:56.294Z,13.00
2024-05-09T10:39:57.347Z,14.00
2024-05-09T10:41:01.155Z,15.50
2024-05-09T10:42:02.058Z,13.50
2024-05-09T10:43:05.828Z,12.67
2024-05-09T10:44:10.958Z,15.67
2024-05-09T10:45:12.256Z,16.00
2024-05-09T10:46:17.638Z,15.33
2024-05-09T10:47:19.147Z,14.00
2024-05-09T10:48:20.096Z,15.17
2024-05-09T10:49:21.105Z,25.50
2024-05-09T10:50:28.355Z,39.50
2024-05-09T10:51:32.798Z,40.83
2024-05-09T10:52:33.651Z,50.83
2024-05-09T10:53:41.335Z,52.17
2024-05-09T10:54:42.236Z,48.67
2024-05-09T10:55:43.089Z,47.67
2024-05-09T10:56:43.932Z,47.33
2024-05-09T10:57:44.764Z,46.00
2024-05-09T10:58:48.582Z,45.00
2024-05-09T10:59:49.419Z,43.33
2024-05-09T11:00:50.462Z,38.17
2024-05-09T11:01:51.487Z,28.50
2024-05-09T11:02:52.456Z,24.83
2024-05-09T11:03:53.560Z,23.17
2024-05-09T11:04:54.710Z,23.83
2024-05-09T11:05:55.755Z,24.00
2024-05-09T11:06:56.646Z,17.00
2024-05-09T11:07:57.737Z,11.17
2024-05-09T11:08:58.578Z,12.33
2024-05-09T11:10:00.546Z,14.50
2024-05-09T11:11:03.605Z,15.00
2024-05-09T11:12:04.706Z,15.00
2024-05-09T11:13:05.649Z,14.17
2024-05-09T11:14:12.554Z,14.00
2024-05-09T11:15:15.352Z,14.83
2024-05-09T11:16:19.607Z,18.83
2024-05-09T11:17:20.887Z,24.50
2024-05-09T11:18:26.639Z,23.67
2024-05-09T11:19:36.991Z,19.67
2024-05-09T11:20:38.082Z,13.67
2024-05-09T11:21:39.238Z,11.33
2024-05-09T11:22:40.082Z,11.83
2024-05-09T11:23:40.911Z,12.83
2024-05-09T11:24:41.865Z,12.50
2024-05-09T11:25:55.547Z,11.17
2024-05-09T11:26:56.964Z,10.17
2024-05-09T11:28:01.202Z,10.00
2024-05-09T11:29:02.071Z,10.00
2024-05-09T11:30:04.230Z,10.00
2024-05-09T11:31:08.918Z,11.00
2024-05-09T11:32:12.403Z,17.50
2024-05-09T11:33:14.150Z,21.50
2024-05-09T11:34:15.088Z,20.00
2024-05-09T11:35:15.997Z,16.33
2024-05-09T11:36:16.839Z,12.67
2024-05-09T11:37:17.888Z,9.00
2024-05-09T11:38:18.842Z,7.33
2024-05-09T11:39:19.680Z,7.00
2024-05-09T11:40:25.347Z,6.83
2024-05-09T11:41:30.255Z,6.00
2024-05-09T11:42:31.200Z,6.33
2024-05-09T11:43:32.428Z,8.00
2024-05-09T11:44:33.317Z,12.33
2024-05-09T11:45:34.379Z,14.00
2024-05-09T11:46:35.305Z,14.00
2024-05-09T11:47:37.356Z,14.33
2024-05-09T11:48:38.451Z,13.33
2024-05-09T11:49:39.427Z,9.83
2024-05-09T11:50:40.316Z,7.50
2024-05-09T11:51:41.280Z,6.83
2024-05-09T11:52:42.171Z,5.67
2024-05-09T11:53:43.003Z,5.00
2024-05-09T11:54:43.881Z,5.00
2024-05-09T11:55:44.708Z,4.17
2024-05-09T11:56:45.543Z,4.00
2024-05-09T11:57:46.509Z,4.83
2024-05-09T11:58:47.434Z,7.67
2024-05-09T11:59:48.260Z,10.67
2024-05-09T12:00:49.229Z,11.50
2024-05-09T12:01:50.352Z,13.00
2024-05-09T12:02:53.093Z,17.67
2024-05-09T12:03:54.197Z,26.33
2024-05-09T12:04:55.194Z,26.00
2024-05-09T12:05:56.345Z,23.67
2024-05-09T12:06:57.317Z,22.67
2024-05-09T12:07:58.171Z,21.67
2024-05-09T12:08:59.015Z,18.33
2024-05-09T12:09:59.894Z,13.00
2024-05-09T12:11:01.106Z,11.50
2024-05-09T12:12:02.507Z,9.33
2024-05-09T12:13:05.556Z,6.83
2024-05-09T12:14:07.751Z,6.00
2024-05-09T12:15:08.601Z,5.17
2024-05-09T12:16:09.603Z,5.00
2024-05-09T12:17:10.545Z,4.83
2024-05-09T12:18:11.410Z,4.00
2024-05-09T12:19:12.793Z,4.00
2024-05-09T12:20:21.130Z,4.00
2024-05-09T12:21:26.653Z,4.67
2024-05-09T12:22:27.526Z,4.33
2024-05-09T12:23:28.395Z,4.00
2024-05-09T12:24:29.674Z,4.00
2024-05-09T12:25:30.521Z,3.00
2024-05-09T12:26:31.368Z,4.00
2024-05-09T12:27:32.261Z,4.00
2024-05-09T12:28:33.226Z,4.67
2024-05-09T12:29:36.264Z,5.00
2024-05-09T12:30:41.220Z,5.00
2024-05-09T12:31:42.846Z,5.00
2024-05-09T12:32:44.953Z,6.00
2024-05-09T12:33:46.010Z,7.67
2024-05-09T12:34:46.940Z,8.00
2024-05-09T12:35:50.713Z,7.17
2024-05-09T12:36:52.028Z,6.50
2024-05-09T12:37:52.984Z,6.00
2024-05-09T12:38:53.892Z,6.00
2024-05-09T12:39:54.840Z,6.00
2024-05-09T12:40:55.911Z,5.50
2024-05-09T12:41:56.971Z,5.00
2024-05-09T12:42:57.880Z,5.00
2024-05-09T12:43:58.729Z,5.33
2024-05-09T12:44:59.568Z,5.00
2024-05-09T12:46:02.273Z,5.00
2024-05-09T12:47:03.267Z,4.83
2024-05-09T12:48:07.008Z,4.00
2024-05-09T12:49:08.201Z,4.00
2024-05-09T12:50:18.774Z,4.00
2024-05-09T12:51:25.822Z,4.67
2024-05-09T12:52:27.488Z,5.50
2024-05-09T12:53:28.354Z,7.00
2024-05-09T12:54:30.701Z,10.33
2024-05-09T12:55:37.755Z,11.33
2024-05-09T12:56:45.588Z,11.00
2024-05-09T12:57:46.464Z,11.00
2024-05-09T12:58:47.307Z,11.00
2024-05-09T12:59:48.148Z,10.33
2024-05-09T13:00:50.322Z,10.00
2024-05-09T13:01:51.349Z,10.00
2024-05-09T13:02:52.227Z,10.00
2024-05-09T13:03:53.353Z,10.00
2024-05-09T13:04:55.835Z,10.00
2024-05-09T13:05:56.711Z,9.33
2024-05-09T13:06:57.602Z,9.00
2024-05-09T13:07:59.416Z,9.00
2024-05-09T13:09:00.304Z,10.17
2024-05-09T13:10:01.432Z,10.67
2024-05-09T13:11:02.320Z,10.00
2024-05-09T13:12:03.344Z,10.00
2024-05-09T13:13:04.318Z,10.00